sensor_id;sensor_type;location;lat;lon;timestamp;P1;durP1;ratioP1;P2;durP2;ratioP2
54743;SDS011;40639;53.170;6.728;2024-02-21T00:02:24;11.13;;;3.20;;
54743;SDS011;40639;53.170;6.728;2024-02-21T00:04:51;15.68;;;4.00;;
54743;SDS011;40639;53.170;6.728;2024-02-21T00:07:17;10.50;;;3.75;;
54743;SDS011;40639;53.170;6.728;2024-02-21T00:09:43;15.80;;;3.78;;
54743;SDS011;40639;53.170;6.728;2024-02-21T00:12:09;20.40;;;3.92;;
54743;SDS011;40639;53.170;6.728;2024-02-21T00:14:35;12.32;;;3.83;;
54743;SDS011;40639;53.170;6.728;2024-02-21T00:17:01;10.63;;;3.75;;
54743;SDS011;40639;53.170;6.728;2024-02-21T00:19:27;13.85;;;4.28;;
54743;SDS011;40639;53.170;6.728;2024-02-21T00:21:53;13.40;;;4.47;;
54743;SDS011;40639;53.170;6.728;2024-02-21T00:24:19;10.57;;;3.67;;
54743;SDS011;40639;53.170;6.728;2024-02-21T00:26:45;10.93;;;3.67;;
54743;SDS011;40639;53.170;6.728;2024-02-21T00:29:11;12.07;;;3.53;;
54743;SDS011;40639;53.170;6.728;2024-02-21T00:31:37;12.60;;;3.95;;
54743;SDS011;40639;53.170;6.728;2024-02-21T00:34:03;11.50;;;3.40;;
54743;SDS011;40639;53.170;6.728;2024-02-21T00:36:30;12.35;;;4.07;;
54743;SDS011;40639;53.170;6.728;2024-02-21T00:38:56;13.10;;;3.55;;
54743;SDS011;40639;53.170;6.728;2024-02-21T00:41:22;11.88;;;4.18;;
54743;SDS011;40639;53.170;6.728;2024-02-21T00:43:48;12.00;;;3.90;;
54743;SDS011;40639;53.170;6.728;2024-02-21T00:46:15;12.52;;;4.18;;
54743;SDS011;40639;53.170;6.728;2024-02-21T00:48:41;12.68;;;3.75;;
54743;SDS011;40639;53.170;6.728;2024-02-21T00:51:07;16.17;;;3.95;;
54743;SDS011;40639;53.170;6.728;2024-02-21T00:53:33;12.00;;;4.75;;
54743;SDS011;40639;53.170;6.728;2024-02-21T00:56:03;20.52;;;4.88;;
54743;SDS011;40639;53.170;6.728;2024-02-21T00:58:30;13.95;;;4.13;;
54743;SDS011;40639;53.170;6.728;2024-02-21T01:00:56;15.52;;;5.00;;
54743;SDS011;40639;53.170;6.728;2024-02-21T01:03:22;12.65;;;4.25;;
54743;SDS011;40639;53.170;6.728;2024-02-21T01:05:48;15.40;;;3.83;;
54743;SDS011;40639;53.170;6.728;2024-02-21T01:08:14;17.17;;;4.25;;
54743;SDS011;40639;53.170;6.728;2024-02-21T01:10:40;15.55;;;5.05;;
54743;SDS011;40639;53.170;6.728;2024-02-21T01:13:06;12.88;;;4.45;;
54743;SDS011;40639;53.170;6.728;2024-02-21T01:15:32;15.30;;;4.90;;
54743;SDS011;40639;53.170;6.728;2024-02-21T01:17:58;15.65;;;4.13;;
54743;SDS011;40639;53.170;6.728;2024-02-21T01:20:24;14.07;;;4.63;;
54743;SDS011;40639;53.170;6.728;2024-02-21T01:22:50;12.50;;;4.10;;
54743;SDS011;40639;53.170;6.728;2024-02-21T01:25:17;13.48;;;4.68;;
54743;SDS011;40639;53.170;6.728;2024-02-21T01:27:43;16.50;;;5.18;;
54743;SDS011;40639;53.170;6.728;2024-02-21T01:30:09;13.52;;;4.82;;
54743;SDS011;40639;53.170;6.728;2024-02-21T01:32:38;22.67;;;5.35;;
54743;SDS011;40639;53.170;6.728;2024-02-21T01:35:05;14.05;;;5.05;;
54743;SDS011;40639;53.170;6.728;2024-02-21T01:37:31;14.90;;;5.13;;
54743;SDS011;40639;53.170;6.728;2024-02-21T01:39:57;12.40;;;4.75;;
54743;SDS011;40639;53.170;6.728;2024-02-21T01:42:23;17.15;;;6.00;;
54743;SDS011;40639;53.170;6.728;2024-02-21T01:44:49;12.20;;;5.43;;
54743;SDS011;40639;53.170;6.728;2024-02-21T01:47:16;15.02;;;6.07;;
54743;SDS011;40639;53.170;6.728;2024-02-21T01:49:42;10.88;;;5.05;;
54743;SDS011;40639;53.170;6.728;2024-02-21T01:52:08;17.73;;;5.45;;
54743;SDS011;40639;53.170;6.728;2024-02-21T01:54:35;16.85;;;5.32;;
54743;SDS011;40639;53.170;6.728;2024-02-21T01:57:01;17.90;;;6.05;;
54743;SDS011;40639;53.170;6.728;2024-02-21T01:59:28;11.52;;;5.10;;
54743;SDS011;40639;53.170;6.728;2024-02-21T02:01:54;12.25;;;4.90;;
54743;SDS011;40639;53.170;6.728;2024-02-21T02:04:22;11.43;;;4.72;;
54743;SDS011;40639;53.170;6.728;2024-02-21T02:06:48;12.85;;;4.85;;
54743;SDS011;40639;53.170;6.728;2024-02-21T02:09:14;10.55;;;4.63;;
54743;SDS011;40639;53.170;6.728;2024-02-21T02:11:40;12.90;;;5.38;;
54743;SDS011;40639;53.170;6.728;2024-02-21T02:14:08;15.52;;;5.43;;
54743;SDS011;40639;53.170;6.728;2024-02-21T02:16:34;11.57;;;4.90;;
54743;SDS011;40639;53.170;6.728;2024-02-21T02:19:00;14.43;;;4.95;;
54743;SDS011;40639;53.170;6.728;2024-02-21T02:21:29;18.73;;;5.55;;
54743;SDS011;40639;53.170;6.728;2024-02-21T02:23:56;14.82;;;6.32;;
54743;SDS011;40639;53.170;6.728;2024-02-21T02:26:22;13.30;;;5.90;;
54743;SDS011;40639;53.170;6.728;2024-02-21T02:28:48;12.75;;;5.82;;
54743;SDS011;40639;53.170;6.728;2024-02-21T02:31:14;13.05;;;5.85;;
54743;SDS011;40639;53.170;6.728;2024-02-21T02:33:42;12.57;;;6.03;;
54743;SDS011;40639;53.170;6.728;2024-02-21T02:36:09;17.67;;;6.88;;
54743;SDS011;40639;53.170;6.728;2024-02-21T02:38:35;14.82;;;6.05;;
54743;SDS011;40639;53.170;6.728;2024-02-21T02:41:02;17.23;;;6.53;;
54743;SDS011;40639;53.170;6.728;2024-02-21T02:43:28;13.48;;;5.50;;
54743;SDS011;40639;53.170;6.728;2024-02-21T02:45:54;12.23;;;5.28;;
54743;SDS011;40639;53.170;6.728;2024-02-21T02:48:20;16.10;;;5.68;;
54743;SDS011;40639;53.170;6.728;2024-02-21T02:50:46;15.30;;;5.97;;
54743;SDS011;40639;53.170;6.728;2024-02-21T02:53:14;15.13;;;6.18;;
54743;SDS011;40639;53.170;6.728;2024-02-21T02:55:40;18.25;;;5.90;;
54743;SDS011;40639;53.170;6.728;2024-02-21T02:58:06;12.80;;;5.57;;
54743;SDS011;40639;53.170;6.728;2024-02-21T03:00:33;18.58;;;5.55;;
54743;SDS011;40639;53.170;6.728;2024-02-21T03:03:01;13.65;;;5.53;;
54743;SDS011;40639;53.170;6.728;2024-02-21T03:05:30;15.38;;;5.88;;
54743;SDS011;40639;53.170;6.728;2024-02-21T03:07:56;15.25;;;5.30;;
54743;SDS011;40639;53.170;6.728;2024-02-21T03:10:23;20.30;;;5.90;;
54743;SDS011;40639;53.170;6.728;2024-02-21T03:12:49;24.58;;;7.65;;
54743;SDS011;40639;53.170;6.728;2024-02-21T03:15:18;18.60;;;7.18;;
54743;SDS011;40639;53.170;6.728;2024-02-21T03:17:44;21.08;;;6.75;;
54743;SDS011;40639;53.170;6.728;2024-02-21T03:20:10;17.38;;;6.78;;
54743;SDS011;40639;53.170;6.728;2024-02-21T03:22:37;16.77;;;6.65;;
54743;SDS011;40639;53.170;6.728;2024-02-21T03:25:03;15.55;;;6.93;;
54743;SDS011;40639;53.170;6.728;2024-02-21T03:27:29;15.82;;;6.55;;
54743;SDS011;40639;53.170;6.728;2024-02-21T03:29:55;20.65;;;6.40;;
54743;SDS011;40639;53.170;6.728;2024-02-21T03:32:22;20.35;;;7.53;;
54743;SDS011;40639;53.170;6.728;2024-02-21T03:34:48;19.17;;;6.70;;
54743;SDS011;40639;53.170;6.728;2024-02-21T03:37:14;24.17;;;7.07;;
54743;SDS011;40639;53.170;6.728;2024-02-21T03:39:40;21.73;;;7.45;;
54743;SDS011;40639;53.170;6.728;2024-02-21T03:42:06;23.05;;;7.32;;
54743;SDS011;40639;53.170;6.728;2024-02-21T03:44:32;21.20;;;6.90;;
54743;SDS011;40639;53.170;6.728;2024-02-21T03:46:59;19.45;;;6.90;;
54743;SDS011;40639;53.170;6.728;2024-02-21T03:49:25;16.52;;;6.72;;
54743;SDS011;40639;53.170;6.728;2024-02-21T03:51:51;21.65;;;7.45;;
54743;SDS011;40639;53.170;6.728;2024-02-21T03:54:17;17.50;;;8.02;;
54743;SDS011;40639;53.170;6.728;2024-02-21T03:56:43;27.05;;;8.70;;
54743;SDS011;40639;53.170;6.728;2024-02-21T03:59:09;26.17;;;7.57;;
54743;SDS011;40639;53.170;6.728;2024-02-21T04:01:36;20.60;;;7.95;;
54743;SDS011;40639;53.170;6.728;2024-02-21T04:04:02;19.20;;;8.05;;
54743;SDS011;40639;53.170;6.728;2024-02-21T04:06:28;22.08;;;7.60;;
54743;SDS011;40639;53.170;6.728;2024-02-21T04:08:54;27.17;;;8.30;;
54743;SDS011;40639;53.170;6.728;2024-02-21T04:11:20;25.70;;;8.77;;
54743;SDS011;40639;53.170;6.728;2024-02-21T04:13:46;22.55;;;8.20;;
54743;SDS011;40639;53.170;6.728;2024-02-21T04:16:15;20.05;;;7.63;;
54743;SDS011;40639;53.170;6.728;2024-02-21T04:18:41;20.60;;;7.85;;
54743;SDS011;40639;53.170;6.728;2024-02-21T04:21:08;21.55;;;6.72;;
54743;SDS011;40639;53.170;6.728;2024-02-21T04:23:34;20.38;;;7.47;;
54743;SDS011;40639;53.170;6.728;2024-02-21T04:26:00;21.50;;;6.93;;
54743;SDS011;40639;53.170;6.728;2024-02-21T04:28:26;15.35;;;7.40;;
54743;SDS011;40639;53.170;6.728;2024-02-21T04:30:52;19.00;;;6.65;;
54743;SDS011;40639;53.170;6.728;2024-02-21T04:33:18;17.17;;;6.82;;
54743;SDS011;40639;53.170;6.728;2024-02-21T04:35:44;14.35;;;5.40;;
54743;SDS011;40639;53.170;6.728;2024-02-21T04:38:10;14.07;;;6.13;;
54743;SDS011;40639;53.170;6.728;2024-02-21T04:40:36;15.07;;;6.40;;
54743;SDS011;40639;53.170;6.728;2024-02-21T04:43:02;21.42;;;6.57;;
54743;SDS011;40639;53.170;6.728;2024-02-21T04:45:29;19.77;;;6.28;;
54743;SDS011;40639;53.170;6.728;2024-02-21T04:47:55;18.75;;;6.95;;
54743;SDS011;40639;53.170;6.728;2024-02-21T04:50:21;21.58;;;6.50;;
54743;SDS011;40639;53.170;6.728;2024-02-21T04:52:47;16.75;;;6.05;;
54743;SDS011;40639;53.170;6.728;2024-02-21T04:55:13;15.27;;;6.40;;
54743;SDS011;40639;53.170;6.728;2024-02-21T04:57:40;20.75;;;6.93;;
54743;SDS011;40639;53.170;6.728;2024-02-21T05:00:06;18.75;;;6.82;;
54743;SDS011;40639;53.170;6.728;2024-02-21T05:02:32;16.80;;;6.82;;
54743;SDS011;40639;53.170;6.728;2024-02-21T05:04:58;21.70;;;6.45;;
54743;SDS011;40639;53.170;6.728;2024-02-21T05:07:24;21.05;;;6.57;;
54743;SDS011;40639;53.170;6.728;2024-02-21T05:09:50;14.35;;;6.63;;
54743;SDS011;40639;53.170;6.728;2024-02-21T05:12:16;24.52;;;6.72;;
54743;SDS011;40639;53.170;6.728;2024-02-21T05:14:42;16.70;;;6.35;;
54743;SDS011;40639;53.170;6.728;2024-02-21T05:17:08;23.35;;;8.43;;
54743;SDS011;40639;53.170;6.728;2024-02-21T05:19:35;18.70;;;6.80;;
54743;SDS011;40639;53.170;6.728;2024-02-21T05:22:01;19.13;;;7.20;;
54743;SDS011;40639;53.170;6.728;2024-02-21T05:24:27;18.02;;;6.57;;
54743;SDS011;40639;53.170;6.728;2024-02-21T05:26:54;20.73;;;6.70;;
54743;SDS011;40639;53.170;6.728;2024-02-21T05:29:20;22.92;;;6.78;;
54743;SDS011;40639;53.170;6.728;2024-02-21T05:34:19;17.83;;;7.32;;
54743;SDS011;40639;53.170;6.728;2024-02-21T05:36:45;18.38;;;6.35;;
54743;SDS011;40639;53.170;6.728;2024-02-21T05:39:12;18.50;;;6.53;;
54743;SDS011;40639;53.170;6.728;2024-02-21T05:41:38;21.40;;;6.47;;
54743;SDS011;40639;53.170;6.728;2024-02-21T05:44:04;26.58;;;6.38;;
54743;SDS011;40639;53.170;6.728;2024-02-21T05:46:30;18.67;;;6.18;;
54743;SDS011;40639;53.170;6.728;2024-02-21T05:48:56;25.52;;;7.10;;
54743;SDS011;40639;53.170;6.728;2024-02-21T05:51:22;18.85;;;6.57;;
54743;SDS011;40639;53.170;6.728;2024-02-21T05:53:48;22.50;;;7.93;;
54743;SDS011;40639;53.170;6.728;2024-02-21T05:56:14;18.45;;;6.68;;
54743;SDS011;40639;53.170;6.728;2024-02-21T05:58:42;20.20;;;6.20;;
54743;SDS011;40639;53.170;6.728;2024-02-21T06:01:08;23.00;;;7.05;;
54743;SDS011;40639;53.170;6.728;2024-02-21T06:03:34;17.65;;;6.25;;
54743;SDS011;40639;53.170;6.728;2024-02-21T06:06:03;18.90;;;6.70;;
54743;SDS011;40639;53.170;6.728;2024-02-21T06:08:30;18.83;;;7.28;;
54743;SDS011;40639;53.170;6.728;2024-02-21T06:10:56;21.83;;;6.47;;
54743;SDS011;40639;53.170;6.728;2024-02-21T06:13:25;24.15;;;6.95;;
54743;SDS011;40639;53.170;6.728;2024-02-21T06:15:52;14.20;;;6.72;;
54743;SDS011;40639;53.170;6.728;2024-02-21T06:18:18;22.42;;;8.05;;
54743;SDS011;40639;53.170;6.728;2024-02-21T06:20:44;18.98;;;6.97;;
54743;SDS011;40639;53.170;6.728;2024-02-21T06:23:11;24.70;;;7.68;;
54743;SDS011;40639;53.170;6.728;2024-02-21T06:25:37;18.02;;;6.88;;
54743;SDS011;40639;53.170;6.728;2024-02-21T06:28:04;20.52;;;7.45;;
54743;SDS011;40639;53.170;6.728;2024-02-21T06:30:30;21.70;;;6.85;;
54743;SDS011;40639;53.170;6.728;2024-02-21T06:32:56;18.17;;;7.32;;
54743;SDS011;40639;53.170;6.728;2024-02-21T06:35:24;18.23;;;7.05;;
54743;SDS011;40639;53.170;6.728;2024-02-21T06:37:52;19.95;;;6.63;;
54743;SDS011;40639;53.170;6.728;2024-02-21T06:40:22;22.77;;;7.00;;
54743;SDS011;40639;53.170;6.728;2024-02-21T06:42:48;27.85;;;7.38;;
54743;SDS011;40639;53.170;6.728;2024-02-21T06:45:14;20.77;;;7.75;;
54743;SDS011;40639;53.170;6.728;2024-02-21T06:47:41;21.58;;;7.15;;
54743;SDS011;40639;53.170;6.728;2024-02-21T06:50:07;26.25;;;7.15;;
54743;SDS011;40639;53.170;6.728;2024-02-21T06:52:34;26.55;;;8.43;;
54743;SDS011;40639;53.170;6.728;2024-02-21T06:55:00;27.17;;;7.43;;
54743;SDS011;40639;53.170;6.728;2024-02-21T06:57:26;27.52;;;8.68;;
54743;SDS011;40639;53.170;6.728;2024-02-21T06:59:52;29.20;;;9.82;;
54743;SDS011;40639;53.170;6.728;2024-02-21T07:02:18;21.83;;;8.48;;
54743;SDS011;40639;53.170;6.728;2024-02-21T07:04:44;28.27;;;9.52;;
54743;SDS011;40639;53.170;6.728;2024-02-21T07:07:10;26.13;;;10.70;;
54743;SDS011;40639;53.170;6.728;2024-02-21T07:09:37;39.28;;;11.52;;
54743;SDS011;40639;53.170;6.728;2024-02-21T07:12:03;34.42;;;11.70;;
54743;SDS011;40639;53.170;6.728;2024-02-21T07:14:30;34.08;;;12.65;;
54743;SDS011;40639;53.170;6.728;2024-02-21T07:16:56;36.00;;;13.63;;
54743;SDS011;40639;53.170;6.728;2024-02-21T07:19:22;38.33;;;14.07;;
54743;SDS011;40639;53.170;6.728;2024-02-21T07:21:48;45.30;;;13.25;;
54743;SDS011;40639;53.170;6.728;2024-02-21T07:24:14;42.67;;;13.38;;
54743;SDS011;40639;53.170;6.728;2024-02-21T07:26:41;37.58;;;12.40;;
54743;SDS011;40639;53.170;6.728;2024-02-21T07:29:11;45.60;;;12.57;;
54743;SDS011;40639;53.170;6.728;2024-02-21T07:31:43;49.72;;;12.88;;
54743;SDS011;40639;53.170;6.728;2024-02-21T07:34:10;38.05;;;11.85;;
54743;SDS011;40639;53.170;6.728;2024-02-21T07:36:36;27.60;;;9.95;;
54743;SDS011;40639;53.170;6.728;2024-02-21T07:39:03;36.72;;;10.65;;
54743;SDS011;40639;53.170;6.728;2024-02-21T07:41:30;31.50;;;9.43;;
54743;SDS011;40639;53.170;6.728;2024-02-21T07:43:56;30.92;;;9.32;;
54743;SDS011;40639;53.170;6.728;2024-02-21T07:46:22;21.20;;;8.13;;
54743;SDS011;40639;53.170;6.728;2024-02-21T07:48:48;32.72;;;8.07;;
54743;SDS011;40639;53.170;6.728;2024-02-21T07:51:15;23.90;;;7.43;;
54743;SDS011;40639;53.170;6.728;2024-02-21T07:53:44;29.05;;;8.35;;
54743;SDS011;40639;53.170;6.728;2024-02-21T07:56:14;19.73;;;6.07;;
54743;SDS011;40639;53.170;6.728;2024-02-21T07:58:41;19.42;;;7.30;;
54743;SDS011;40639;53.170;6.728;2024-02-21T08:01:08;23.60;;;8.38;;
54743;SDS011;40639;53.170;6.728;2024-02-21T08:03:34;22.73;;;6.10;;
54743;SDS011;40639;53.170;6.728;2024-02-21T08:06:00;21.88;;;6.28;;
54743;SDS011;40639;53.170;6.728;2024-02-21T08:08:26;18.17;;;6.63;;
54743;SDS011;40639;53.170;6.728;2024-02-21T08:10:53;19.92;;;6.63;;
54743;SDS011;40639;53.170;6.728;2024-02-21T08:13:19;18.25;;;5.80;;
54743;SDS011;40639;53.170;6.728;2024-02-21T08:15:46;17.00;;;5.70;;
54743;SDS011;40639;53.170;6.728;2024-02-21T08:18:12;15.18;;;5.85;;
54743;SDS011;40639;53.170;6.728;2024-02-21T08:20:38;22.20;;;6.72;;
54743;SDS011;40639;53.170;6.728;2024-02-21T08:23:04;22.45;;;6.57;;
54743;SDS011;40639;53.170;6.728;2024-02-21T08:25:30;15.60;;;5.65;;
54743;SDS011;40639;53.170;6.728;2024-02-21T08:27:57;17.27;;;5.60;;
54743;SDS011;40639;53.170;6.728;2024-02-21T08:30:23;22.55;;;6.72;;
54743;SDS011;40639;53.170;6.728;2024-02-21T08:32:50;18.00;;;5.30;;
54743;SDS011;40639;53.170;6.728;2024-02-21T08:35:16;15.70;;;5.03;;
54743;SDS011;40639;53.170;6.728;2024-02-21T08:37:47;11.93;;;4.90;;
54743;SDS011;40639;53.170;6.728;2024-02-21T08:40:13;22.85;;;6.20;;
54743;SDS011;40639;53.170;6.728;2024-02-21T08:42:42;17.77;;;5.72;;
54743;SDS011;40639;53.170;6.728;2024-02-21T08:45:09;16.23;;;5.72;;
54743;SDS011;40639;53.170;6.728;2024-02-21T08:47:35;18.48;;;6.13;;
54743;SDS011;40639;53.170;6.728;2024-02-21T08:50:02;16.58;;;6.43;;
54743;SDS011;40639;53.170;6.728;2024-02-21T08:52:28;19.77;;;6.32;;
54743;SDS011;40639;53.170;6.728;2024-02-21T08:54:54;19.67;;;7.75;;
54743;SDS011;40639;53.170;6.728;2024-02-21T08:57:20;19.95;;;8.07;;
54743;SDS011;40639;53.170;6.728;2024-02-21T08:59:46;22.85;;;8.13;;
54743;SDS011;40639;53.170;6.728;2024-02-21T09:02:13;19.88;;;9.27;;
54743;SDS011;40639;53.170;6.728;2024-02-21T09:04:41;21.38;;;8.50;;
54743;SDS011;40639;53.170;6.728;2024-02-21T09:07:07;23.75;;;9.55;;
54743;SDS011;40639;53.170;6.728;2024-02-21T09:09:34;22.45;;;10.15;;
54743;SDS011;40639;53.170;6.728;2024-02-21T09:12:00;22.95;;;10.35;;
54743;SDS011;40639;53.170;6.728;2024-02-21T09:14:31;24.10;;;10.60;;
54743;SDS011;40639;53.170;6.728;2024-02-21T09:16:57;24.45;;;10.45;;
54743;SDS011;40639;53.170;6.728;2024-02-21T09:19:23;25.00;;;10.63;;
54743;SDS011;40639;53.170;6.728;2024-02-21T09:21:49;21.63;;;10.07;;
54743;SDS011;40639;53.170;6.728;2024-02-21T09:24:15;20.90;;;9.25;;
54743;SDS011;40639;53.170;6.728;2024-02-21T09:26:41;19.63;;;9.43;;
54743;SDS011;40639;53.170;6.728;2024-02-21T09:29:08;21.38;;;9.90;;
54743;SDS011;40639;53.170;6.728;2024-02-21T09:31:34;20.90;;;9.23;;
54743;SDS011;40639;53.170;6.728;2024-02-21T09:34:00;23.95;;;9.77;;
54743;SDS011;40639;53.170;6.728;2024-02-21T09:36:27;20.48;;;9.98;;
54743;SDS011;40639;53.170;6.728;2024-02-21T09:38:53;19.98;;;10.23;;
54743;SDS011;40639;53.170;6.728;2024-02-21T09:41:26;23.40;;;9.27;;
54743;SDS011;40639;53.170;6.728;2024-02-21T09:43:55;22.27;;;10.80;;
54743;SDS011;40639;53.170;6.728;2024-02-21T09:51:47;21.65;;;9.73;;
54743;SDS011;40639;53.170;6.728;2024-02-21T09:54:15;20.50;;;9.45;;
54743;SDS011;40639;53.170;6.728;2024-02-21T09:56:46;19.55;;;9.50;;
54743;SDS011;40639;53.170;6.728;2024-02-21T09:59:14;17.85;;;9.52;;
54743;SDS011;40639;53.170;6.728;2024-02-21T10:01:42;19.90;;;10.23;;
54743;SDS011;40639;53.170;6.728;2024-02-21T10:04:09;22.85;;;9.95;;
54743;SDS011;40639;53.170;6.728;2024-02-21T10:06:35;18.38;;;10.73;;
54743;SDS011;40639;53.170;6.728;2024-02-21T10:09:08;21.20;;;11.88;;
54743;SDS011;40639;53.170;6.728;2024-02-21T10:11:34;23.88;;;11.15;;
54743;SDS011;40639;53.170;6.728;2024-02-21T10:14:07;21.70;;;11.20;;
54743;SDS011;40639;53.170;6.728;2024-02-21T10:16:33;23.58;;;11.48;;
54743;SDS011;40639;53.170;6.728;2024-02-21T10:19:00;22.92;;;12.70;;
54743;SDS011;40639;53.170;6.728;2024-02-21T10:21:26;22.38;;;10.93;;
54743;SDS011;40639;53.170;6.728;2024-02-21T10:23:52;25.25;;;12.90;;
54743;SDS011;40639;53.170;6.728;2024-02-21T10:26:18;24.80;;;12.80;;
54743;SDS011;40639;53.170;6.728;2024-02-21T10:28:45;24.63;;;12.23;;
54743;SDS011;40639;53.170;6.728;2024-02-21T10:31:21;23.83;;;12.43;;
54743;SDS011;40639;53.170;6.728;2024-02-21T10:33:57;25.10;;;13.18;;
54743;SDS011;40639;53.170;6.728;2024-02-21T10:36:24;24.13;;;12.35;;
54743;SDS011;40639;53.170;6.728;2024-02-21T10:38:51;27.67;;;13.00;;
54743;SDS011;40639;53.170;6.728;2024-02-21T10:41:18;25.02;;;12.32;;
54743;SDS011;40639;53.170;6.728;2024-02-21T10:43:46;23.13;;;12.52;;
54743;SDS011;40639;53.170;6.728;2024-02-21T10:46:15;25.42;;;12.43;;
54743;SDS011;40639;53.170;6.728;2024-02-21T10:48:44;25.15;;;12.35;;
54743;SDS011;40639;53.170;6.728;2024-02-21T10:53:56;22.60;;;13.10;;
54743;SDS011;40639;53.170;6.728;2024-02-21T10:58:50;24.77;;;11.67;;
54743;SDS011;40639;53.170;6.728;2024-02-21T11:01:17;24.90;;;12.27;;
54743;SDS011;40639;53.170;6.728;2024-02-21T11:03:43;21.00;;;12.20;;
54743;SDS011;40639;53.170;6.728;2024-02-21T11:06:10;25.35;;;12.40;;
54743;SDS011;40639;53.170;6.728;2024-02-21T11:08:37;20.13;;;11.30;;
54743;SDS011;40639;53.170;6.728;2024-02-21T11:11:04;22.38;;;11.60;;
54743;SDS011;40639;53.170;6.728;2024-02-21T11:13:36;21.00;;;10.98;;
54743;SDS011;40639;53.170;6.728;2024-02-21T11:16:09;21.88;;;11.52;;
54743;SDS011;40639;53.170;6.728;2024-02-21T11:18:36;18.08;;;10.55;;
54743;SDS011;40639;53.170;6.728;2024-02-21T11:21:02;22.50;;;10.73;;
54743;SDS011;40639;53.170;6.728;2024-02-21T11:23:32;22.15;;;10.45;;
54743;SDS011;40639;53.170;6.728;2024-02-21T11:26:08;18.63;;;10.00;;
54743;SDS011;40639;53.170;6.728;2024-02-21T11:28:35;19.10;;;10.40;;
54743;SDS011;40639;53.170;6.728;2024-02-21T11:31:06;21.20;;;9.90;;
54743;SDS011;40639;53.170;6.728;2024-02-21T11:33:33;18.20;;;9.98;;
54743;SDS011;40639;53.170;6.728;2024-02-21T11:35:59;17.73;;;9.57;;
54743;SDS011;40639;53.170;6.728;2024-02-21T11:38:25;17.02;;;9.90;;
54743;SDS011;40639;53.170;6.728;2024-02-21T11:40:51;17.08;;;8.63;;
54743;SDS011;40639;53.170;6.728;2024-02-21T11:43:17;18.10;;;9.90;;
54743;SDS011;40639;53.170;6.728;2024-02-21T11:45:43;19.17;;;9.60;;
54743;SDS011;40639;53.170;6.728;2024-02-21T11:48:09;17.48;;;9.65;;
54743;SDS011;40639;53.170;6.728;2024-02-21T11:50:36;17.65;;;9.20;;
54743;SDS011;40639;53.170;6.728;2024-02-21T11:53:02;15.98;;;8.98;;
54743;SDS011;40639;53.170;6.728;2024-02-21T11:55:28;12.93;;;8.63;;
54743;SDS011;40639;53.170;6.728;2024-02-21T11:57:54;13.45;;;7.90;;
54743;SDS011;40639;53.170;6.728;2024-02-21T12:00:21;18.25;;;8.43;;
54743;SDS011;40639;53.170;6.728;2024-02-21T12:02:49;14.88;;;7.90;;
54743;SDS011;40639;53.170;6.728;2024-02-21T12:05:16;17.10;;;7.75;;
54743;SDS011;40639;53.170;6.728;2024-02-21T12:07:42;17.15;;;7.50;;
54743;SDS011;40639;53.170;6.728;2024-02-21T12:10:09;17.00;;;7.93;;
54743;SDS011;40639;53.170;6.728;2024-02-21T12:12:36;17.50;;;8.32;;
54743;SDS011;40639;53.170;6.728;2024-02-21T12:15:03;15.68;;;7.40;;
54743;SDS011;40639;53.170;6.728;2024-02-21T12:17:30;13.30;;;7.20;;
54743;SDS011;40639;53.170;6.728;2024-02-21T12:19:56;15.68;;;7.75;;
54743;SDS011;40639;53.170;6.728;2024-02-21T12:22:24;15.18;;;7.15;;
54743;SDS011;40639;53.170;6.728;2024-02-21T12:24:50;14.73;;;7.65;;
54743;SDS011;40639;53.170;6.728;2024-02-21T12:27:17;12.55;;;6.88;;
54743;SDS011;40639;53.170;6.728;2024-02-21T12:29:52;15.02;;;7.50;;
54743;SDS011;40639;53.170;6.728;2024-02-21T12:32:18;13.23;;;7.30;;
54743;SDS011;40639;53.170;6.728;2024-02-21T12:34:44;12.85;;;6.60;;
54743;SDS011;40639;53.170;6.728;2024-02-21T12:37:10;14.68;;;7.35;;
54743;SDS011;40639;53.170;6.728;2024-02-21T12:39:41;13.23;;;7.60;;
54743;SDS011;40639;53.170;6.728;2024-02-21T12:42:07;13.95;;;7.07;;
54743;SDS011;40639;53.170;6.728;2024-02-21T12:44:36;14.00;;;6.93;;
54743;SDS011;40639;53.170;6.728;2024-02-21T12:47:02;13.48;;;6.97;;
54743;SDS011;40639;53.170;6.728;2024-02-21T12:49:29;13.95;;;7.45;;
54743;SDS011;40639;53.170;6.728;2024-02-21T12:51:55;13.70;;;6.78;;
54743;SDS011;40639;53.170;6.728;2024-02-21T12:54:21;12.55;;;7.68;;
54743;SDS011;40639;53.170;6.728;2024-02-21T12:56:47;14.98;;;7.50;;
54743;SDS011;40639;53.170;6.728;2024-02-21T12:59:15;10.85;;;6.53;;
54743;SDS011;40639;53.170;6.728;2024-02-21T13:01:41;11.38;;;6.68;;
54743;SDS011;40639;53.170;6.728;2024-02-21T13:04:07;11.23;;;6.30;;
54743;SDS011;40639;53.170;6.728;2024-02-21T13:06:33;13.27;;;7.07;;
54743;SDS011;40639;53.170;6.728;2024-02-21T13:09:01;13.90;;;7.47;;
54743;SDS011;40639;53.170;6.728;2024-02-21T13:11:32;11.02;;;7.03;;
54743;SDS011;40639;53.170;6.728;2024-02-21T13:13:58;10.70;;;6.00;;
54743;SDS011;40639;53.170;6.728;2024-02-21T13:16:24;12.50;;;6.18;;
54743;SDS011;40639;53.170;6.728;2024-02-21T13:18:51;13.70;;;5.97;;
54743;SDS011;40639;53.170;6.728;2024-02-21T13:21:17;10.40;;;5.35;;
54743;SDS011;40639;53.170;6.728;2024-02-21T13:23:43;11.23;;;5.45;;
54743;SDS011;40639;53.170;6.728;2024-02-21T13:26:10;9.75;;;5.82;;
54743;SDS011;40639;53.170;6.728;2024-02-21T13:28:37;8.88;;;4.95;;
54743;SDS011;40639;53.170;6.728;2024-02-21T13:31:03;10.55;;;4.85;;
54743;SDS011;40639;53.170;6.728;2024-02-21T13:33:29;8.57;;;4.95;;
54743;SDS011;40639;53.170;6.728;2024-02-21T13:35:56;9.20;;;4.32;;
54743;SDS011;40639;53.170;6.728;2024-02-21T13:38:22;7.85;;;3.92;;
54743;SDS011;40639;53.170;6.728;2024-02-21T13:40:49;8.93;;;4.80;;
54743;SDS011;40639;53.170;6.728;2024-02-21T13:43:15;6.78;;;4.03;;
54743;SDS011;40639;53.170;6.728;2024-02-21T13:45:45;8.73;;;4.53;;
54743;SDS011;40639;53.170;6.728;2024-02-21T13:48:21;7.80;;;4.05;;
54743;SDS011;40639;53.170;6.728;2024-02-21T13:50:47;7.70;;;4.53;;
54743;SDS011;40639;53.170;6.728;2024-02-21T13:53:13;7.57;;;3.70;;
54743;SDS011;40639;53.170;6.728;2024-02-21T13:55:39;8.25;;;4.65;;
54743;SDS011;40639;53.170;6.728;2024-02-21T13:58:06;9.00;;;3.80;;
54743;SDS011;40639;53.170;6.728;2024-02-21T14:00:33;6.85;;;4.07;;
54743;SDS011;40639;53.170;6.728;2024-02-21T14:03:01;8.85;;;4.28;;
54743;SDS011;40639;53.170;6.728;2024-02-21T14:05:27;5.97;;;3.67;;
54743;SDS011;40639;53.170;6.728;2024-02-21T14:08:02;7.68;;;3.88;;
54743;SDS011;40639;53.170;6.728;2024-02-21T14:10:30;6.22;;;3.70;;
54743;SDS011;40639;53.170;6.728;2024-02-21T14:12:56;7.47;;;3.92;;
54743;SDS011;40639;53.170;6.728;2024-02-21T14:15:23;7.85;;;3.92;;
54743;SDS011;40639;53.170;6.728;2024-02-21T14:17:50;7.70;;;4.38;;
54743;SDS011;40639;53.170;6.728;2024-02-21T14:20:16;7.15;;;4.32;;
54743;SDS011;40639;53.170;6.728;2024-02-21T14:22:42;8.82;;;4.10;;
54743;SDS011;40639;53.170;6.728;2024-02-21T14:25:08;9.88;;;4.20;;
54743;SDS011;40639;53.170;6.728;2024-02-21T14:27:34;7.60;;;4.47;;
54743;SDS011;40639;53.170;6.728;2024-02-21T14:30:03;7.85;;;4.45;;
54743;SDS011;40639;53.170;6.728;2024-02-21T14:32:30;9.32;;;4.25;;
54743;SDS011;40639;53.170;6.728;2024-02-21T14:34:56;7.18;;;4.38;;
54743;SDS011;40639;53.170;6.728;2024-02-21T14:37:22;6.78;;;3.97;;
54743;SDS011;40639;53.170;6.728;2024-02-21T14:39:48;7.78;;;4.20;;
54743;SDS011;40639;53.170;6.728;2024-02-21T14:42:14;8.45;;;4.47;;
54743;SDS011;40639;53.170;6.728;2024-02-21T14:44:40;7.60;;;4.20;;